Tropical Cyclones
[Index]
Main Index Home Page Stock Weather Photos Extreme Storms Discussion Storm News and Storm Chasing Reports Tropical Cyclones / Hurricanes / Typhoons Weather Data and Links Wild Fires / Bushfires Weather Observation Techniques Weather Picture Catalogue Tornado Pictures and Reports Stock Video Footage and DVDs for sale
Season 2008-2009 Tropical Cyclone ILSA Track Map
Season 2008-2009 Summaries: [BoM-AU] [JTWC-AU] [JTWC-SIO] [JTWC-SPAC] [JTWC-SH]
<<- Previous TC | BoM 2008-2009 Season | Next TC ->>

click for intensity scale information  Lat/long Grid: Show Hide

 Date Labels: Show Hide

Bureau of Meteorology Tropical Cyclone Data

Name: ILSA
Number: 927 / 200809_18

15 Mar 2009 00:00 UTC to 24 Mar 2009 06:00 UTC

    date/time    lat    long    hPa   cat  kts
2009-03-15 00   10.0   128.7   1006         20          
2009-03-15 06   10.2   127.9   1006         20          
2009-03-15 12   10.4   126.8   1006         20          
2009-03-15 18   10.6   125.7   1004         25          
2009-03-16 00   10.8   124.6   1004         25          
2009-03-16 06   11.2   123.3   1004         25          
2009-03-16 12   12.0   122.4   1004         25          
2009-03-16 18   12.2   121.4   1004         25          
2009-03-17 00   12.4   119.8   1004         25          
2009-03-17 06   12.8   118.1   1002         30          
2009-03-17 12   13.0   116.4   1002         30          
2009-03-17 18   13.1   114.7   1000         35          
2009-03-18 00   13.5   113.4    996         40          
2009-03-18 06   13.6   111.7    994    1    45          
2009-03-18 12   13.8   110.9    990    1    50          
2009-03-18 18   14.5   109.7    984    2    60          
2009-03-19 00   15.2   108.7    976    2    70          
2009-03-19 06   16.0   107.6    968    3    80          
2009-03-19 12   16.3   106.9    958    3    90          
2009-03-19 18   16.2   105.9    958    3    90          
2009-03-20 00   16.2   105.2    966    3    80          
2009-03-20 06   16.1   104.4    966    3    80          
2009-03-20 12   16.0   103.9    966    3    80          
2009-03-20 18   15.9   103.1    966    3    80          
2009-03-21 00   15.9   102.4    966    3    80          
2009-03-21 06   16.1   101.6    966    3    80          
2009-03-21 12   16.2   101.1    966    3    80          
2009-03-21 18   16.2   100.2    968    3    80          
2009-03-22 00   16.4    99.5    972    2    75          
2009-03-22 06   16.6    98.8    976    2    70          
2009-03-22 12   16.8    97.9    980    2    65          
2009-03-22 18   17.1    96.7    986    1    60          
2009-03-23 00   17.3    95.6    992    1    50          
2009-03-23 06   17.5    94.3    996         45          
2009-03-23 12   18.2    92.9    998         40          
2009-03-23 18   18.7    91.4   1000         35          
2009-03-24 00   19.2    90.1   1002         30          
2009-03-24 06   19.6    89.0   1002         25          
Winds are 10-min average.

Tropical cyclone tracks developed by Michael Bath using data from the Bureau of Meteorology and Google Maps.


[Australian Severe Weather index] [Copyright Notice] [Email Contacts] [Search This Site] [Privacy Policy]
Document: tropical_cyclone_ilsa.htm Updated: 29 June 2017